createdAt,value
2018-03-30T00:00:11.189Z,3.10
2018-03-30T00:02:38.690Z,3.10
2018-03-30T00:05:06.212Z,3.20
2018-03-30T00:07:33.697Z,3.20
2018-03-30T00:10:01.198Z,3.20
2018-03-30T00:12:28.690Z,3.20
2018-03-30T00:14:56.988Z,3.20
2018-03-30T00:17:24.481Z,3.10
2018-03-30T00:19:51.992Z,3.20
2018-03-30T00:22:20.275Z,3.20
2018-03-30T00:24:48.537Z,3.10
2018-03-30T00:27:16.047Z,3.10
2018-03-30T00:29:43.528Z,3.10
2018-03-30T00:32:11.046Z,3.10
2018-03-30T00:34:38.562Z,3.10
2018-03-30T00:37:06.050Z,3.10
2018-03-30T00:39:33.600Z,3.10
2018-03-30T00:42:01.070Z,3.10
2018-03-30T00:44:28.582Z,3.10
2018-03-30T00:46:56.064Z,3.10
2018-03-30T00:49:23.564Z,3.20
2018-03-30T00:51:51.070Z,3.20
2018-03-30T00:54:19.317Z,3.20
2018-03-30T00:56:46.848Z,3.10
2018-03-30T00:59:14.334Z,3.20
2018-03-30T01:01:41.846Z,3.20
2018-03-30T01:04:09.362Z,3.20
2018-03-30T01:06:36.871Z,3.20
2018-03-30T01:09:04.400Z,3.20
2018-03-30T01:11:31.914Z,3.20
2018-03-30T01:13:59.415Z,3.00
2018-03-30T01:16:26.933Z,3.00
2018-03-30T01:18:54.431Z,3.00
2018-03-30T01:21:21.947Z,3.00
2018-03-30T01:23:49.455Z,3.00
2018-03-30T01:26:16.974Z,3.10
2018-03-30T01:28:44.473Z,3.10
2018-03-30T01:31:11.984Z,3.10
2018-03-30T01:33:39.493Z,3.00
2018-03-30T01:36:06.985Z,2.90
2018-03-30T01:38:34.513Z,2.90
2018-03-30T01:41:02.003Z,2.80
2018-03-30T01:43:29.509Z,2.80
2018-03-30T01:45:57.003Z,2.70
2018-03-30T01:48:24.473Z,2.70
2018-03-30T01:50:51.999Z,2.70
2018-03-30T01:53:19.523Z,2.70
2018-03-30T01:55:47.047Z,2.70
2018-03-30T01:58:15.204Z,2.70
2018-03-30T02:00:42.727Z,2.70
2018-03-30T02:03:10.235Z,2.70
2018-03-30T02:05:37.709Z,2.80
2018-03-30T02:08:05.242Z,2.80
2018-03-30T02:10:32.741Z,2.80
2018-03-30T02:13:00.258Z,2.80
2018-03-30T02:15:27.775Z,2.70
2018-03-30T02:17:55.288Z,2.70
2018-03-30T02:20:22.792Z,2.60
2018-03-30T02:22:50.294Z,2.60
2018-03-30T02:25:17.798Z,2.60
2018-03-30T02:27:45.293Z,2.70
2018-03-30T02:30:13.574Z,2.70
2018-03-30T02:32:41.089Z,2.70
2018-03-30T02:35:09.374Z,2.90
2018-03-30T02:37:37.662Z,2.90
2018-03-30T02:40:05.930Z,2.90
2018-03-30T02:42:34.235Z,2.80
2018-03-30T02:45:01.720Z,2.80
2018-03-30T02:47:29.213Z,2.70
2018-03-30T02:49:56.719Z,2.70
2018-03-30T02:52:24.205Z,2.60
2018-03-30T02:54:51.721Z,2.60
2018-03-30T02:57:19.230Z,2.60
2018-03-30T02:59:46.725Z,2.60
2018-03-30T03:02:14.241Z,2.60
2018-03-30T03:04:41.719Z,2.50
2018-03-30T03:07:09.231Z,2.50
2018-03-30T03:09:36.725Z,2.50
2018-03-30T03:12:04.233Z,2.60
2018-03-30T03:14:31.768Z,2.60
2018-03-30T03:16:59.277Z,2.50
2018-03-30T03:19:26.774Z,2.60
2018-03-30T03:21:54.265Z,2.60
2018-03-30T03:24:21.779Z,2.70
2018-03-30T03:26:50.056Z,2.70
2018-03-30T03:29:17.555Z,2.70
2018-03-30T03:31:45.072Z,2.70
2018-03-30T03:34:12.565Z,2.70
2018-03-30T03:36:40.832Z,2.80
2018-03-30T03:39:09.110Z,2.80
2018-03-30T03:41:37.368Z,2.80
2018-03-30T03:44:06.389Z,2.80
2018-03-30T03:46:33.880Z,2.80
2018-03-30T03:49:01.423Z,2.80
2018-03-30T03:51:29.697Z,2.80
2018-03-30T03:53:57.202Z,2.80
2018-03-30T03:56:24.708Z,2.80
2018-03-30T03:58:52.212Z,2.80
2018-03-30T04:01:19.753Z,2.80
2018-03-30T04:03:47.245Z,2.80
2018-03-30T04:06:14.734Z,2.90
2018-03-30T04:08:42.237Z,2.90
2018-03-30T04:11:09.737Z,2.80
2018-03-30T04:13:37.250Z,2.80
2018-03-30T04:16:04.748Z,2.80
2018-03-30T04:18:32.238Z,2.90
2018-03-30T04:20:59.759Z,2.90
2018-03-30T04:23:27.266Z,2.80
2018-03-30T04:25:54.798Z,2.80
2018-03-30T04:28:22.297Z,2.70
2018-03-30T04:30:49.784Z,2.60
2018-03-30T04:33:17.282Z,2.50
2018-03-30T04:35:45.543Z,2.40
2018-03-30T04:38:13.838Z,2.40
2018-03-30T04:40:42.104Z,2.40
2018-03-30T04:43:09.604Z,2.40
2018-03-30T04:45:37.104Z,2.40
2018-03-30T04:48:04.606Z,2.40
2018-03-30T04:50:32.886Z,2.40
2018-03-30T04:53:01.154Z,2.50
2018-03-30T04:55:28.691Z,2.40
2018-03-30T04:57:56.202Z,2.40
2018-03-30T05:00:23.701Z,2.40
2018-03-30T05:02:51.200Z,2.30
2018-03-30T05:05:18.684Z,2.30
2018-03-30T05:07:46.202Z,2.30
2018-03-30T05:10:13.721Z,2.30
2018-03-30T05:12:41.260Z,2.20
2018-03-30T05:15:08.760Z,2.20
2018-03-30T05:17:36.264Z,2.20
2018-03-30T05:20:03.779Z,2.10
2018-03-30T05:22:31.286Z,2.10
2018-03-30T05:24:58.832Z,2.20
2018-03-30T05:27:26.348Z,2.30
2018-03-30T05:29:53.859Z,2.30
2018-03-30T05:32:21.389Z,2.20
2018-03-30T05:34:48.918Z,2.20
2018-03-30T05:37:16.441Z,2.10
2018-03-30T05:39:43.996Z,2.10
2018-03-30T05:42:12.217Z,2.10
2018-03-30T05:44:39.722Z,2.00
2018-03-30T05:47:07.233Z,2.10
2018-03-30T05:49:34.755Z,2.10
2018-03-30T05:52:02.248Z,2.10
2018-03-30T05:54:30.550Z,2.20
2018-03-30T05:56:58.054Z,2.20
2018-03-30T05:59:25.596Z,2.30
2018-03-30T06:01:53.090Z,2.30
2018-03-30T06:04:20.586Z,2.40
2018-03-30T06:06:48.132Z,2.40
2018-03-30T06:09:15.631Z,2.40
2018-03-30T06:11:43.112Z,2.50
2018-03-30T06:14:10.615Z,2.70
2018-03-30T06:16:38.110Z,2.90
2018-03-30T06:19:05.694Z,3.20
2018-03-30T06:21:33.129Z,3.40
2018-03-30T06:24:00.643Z,3.60
2018-03-30T06:26:28.140Z,3.80
2018-03-30T06:28:55.630Z,4.00
2018-03-30T06:31:23.148Z,4.10
2018-03-30T06:33:50.650Z,4.30
2018-03-30T06:36:18.166Z,4.60
2018-03-30T06:38:46.418Z,4.90
2018-03-30T06:41:13.906Z,4.90
2018-03-30T06:43:41.431Z,5.00
2018-03-30T06:46:08.929Z,5.20
2018-03-30T06:48:36.427Z,5.30
2018-03-30T06:51:03.913Z,5.50
2018-03-30T06:53:31.404Z,5.70
2018-03-30T06:55:58.933Z,5.80
2018-03-30T06:58:26.414Z,6.00
2018-03-30T07:00:53.925Z,6.00
2018-03-30T07:03:21.427Z,6.10
2018-03-30T07:05:48.950Z,6.10
2018-03-30T07:08:16.468Z,6.20
2018-03-30T07:10:43.972Z,6.30
2018-03-30T07:13:11.486Z,6.50
2018-03-30T07:15:38.984Z,6.60
2018-03-30T07:18:07.244Z,7.00
2018-03-30T07:20:34.759Z,7.00
2018-03-30T07:23:02.260Z,7.20
2018-03-30T07:25:29.792Z,7.40
2018-03-30T07:27:57.308Z,7.60
2018-03-30T07:30:25.557Z,7.80
2018-03-30T07:32:53.071Z,7.80
2018-03-30T07:35:20.551Z,8.00
2018-03-30T07:37:48.082Z,8.10
2018-03-30T07:40:16.104Z,8.30
2018-03-30T07:42:43.644Z,8.40
2018-03-30T07:45:11.221Z,8.60
2018-03-30T07:47:38.761Z,8.60
2018-03-30T07:50:07.048Z,8.70
2018-03-30T07:52:34.570Z,8.70
2018-03-30T07:55:02.078Z,8.90
2018-03-30T07:57:29.588Z,9.10
2018-03-30T07:59:57.094Z,9.30
2018-03-30T08:02:24.642Z,9.50
2018-03-30T08:04:52.139Z,9.60
2018-03-30T08:07:19.676Z,9.80
2018-03-30T08:09:47.180Z,10.00
2018-03-30T08:12:14.730Z,10.10
2018-03-30T08:14:42.285Z,10.30
2018-03-30T08:17:09.814Z,10.20
2018-03-30T08:19:38.107Z,10.60
2018-03-30T08:22:06.368Z,10.90
2018-03-30T08:24:33.904Z,10.90
2018-03-30T08:27:01.401Z,11.30
2018-03-30T08:29:28.915Z,11.50
2018-03-30T08:31:56.491Z,11.60
2018-03-30T08:34:23.986Z,11.90
2018-03-30T08:36:51.499Z,12.40
2018-03-30T08:39:18.988Z,12.90
2018-03-30T08:41:46.538Z,13.20
2018-03-30T08:44:14.019Z,13.40
2018-03-30T08:46:41.513Z,13.80
2018-03-30T08:49:09.801Z,14.30
2018-03-30T08:51:38.071Z,14.40
2018-03-30T08:54:06.388Z,14.70
2018-03-30T08:56:33.903Z,14.60
2018-03-30T08:59:01.403Z,14.70
2018-03-30T09:01:28.928Z,14.90
2018-03-30T09:03:56.434Z,15.10
2018-03-30T09:06:23.968Z,15.30
2018-03-30T09:08:52.251Z,15.20
2018-03-30T09:11:20.548Z,15.20
2018-03-30T09:13:48.043Z,15.10
2018-03-30T09:16:16.668Z,14.90
2018-03-30T09:18:44.187Z,14.60
2018-03-30T09:21:11.700Z,14.50
2018-03-30T09:23:39.198Z,14.60
2018-03-30T09:26:06.716Z,14.90
2018-03-30T09:28:34.273Z,15.20
2018-03-30T09:31:01.782Z,15.20
2018-03-30T09:33:29.325Z,15.30
2018-03-30T09:35:57.624Z,15.40
2018-03-30T09:38:25.142Z,15.40
2018-03-30T09:40:52.666Z,15.30
2018-03-30T09:43:20.156Z,15.40
2018-03-30T09:45:47.678Z,15.60
2018-03-30T09:48:15.170Z,15.80
2018-03-30T09:50:42.683Z,16.00
2018-03-30T09:53:10.987Z,16.40
2018-03-30T09:55:39.249Z,16.40
2018-03-30T09:58:07.521Z,16.50
2018-03-30T10:00:35.116Z,16.50
2018-03-30T10:03:04.563Z,16.30
2018-03-30T10:05:32.116Z,16.20
2018-03-30T10:07:59.659Z,16.40
2018-03-30T10:10:27.178Z,16.70
2018-03-30T10:12:54.699Z,17.00
2018-03-30T10:15:22.212Z,16.80
2018-03-30T10:17:49.734Z,16.70
2018-03-30T10:20:17.265Z,16.80
2018-03-30T10:22:44.760Z,16.80
2018-03-30T10:25:12.282Z,16.70
2018-03-30T10:27:39.832Z,16.50
2018-03-30T10:30:07.282Z,16.40
2018-03-30T10:32:34.795Z,16.50
2018-03-30T10:35:02.318Z,16.50
2018-03-30T10:37:30.687Z,16.80
2018-03-30T10:39:58.171Z,16.90
2018-03-30T10:42:26.480Z,17.30
2018-03-30T10:44:53.985Z,17.30
2018-03-30T10:47:21.521Z,17.20
2018-03-30T10:49:49.034Z,17.20
2018-03-30T10:52:16.555Z,17.20
2018-03-30T10:54:44.063Z,17.30
2018-03-30T10:57:11.579Z,17.50
2018-03-30T10:59:39.116Z,17.70
2018-03-30T11:02:06.635Z,17.90
2018-03-30T11:04:34.157Z,17.90
2018-03-30T11:07:01.653Z,17.70
2018-03-30T11:09:29.188Z,17.70
2018-03-30T11:11:56.700Z,17.60
2018-03-30T11:14:24.215Z,17.40
2018-03-30T11:16:51.727Z,17.50
2018-03-30T11:19:19.289Z,17.80
2018-03-30T11:21:46.776Z,18.00
2018-03-30T11:24:15.060Z,17.80
2018-03-30T11:26:42.604Z,17.80
2018-03-30T11:29:10.125Z,17.90
2018-03-30T11:31:37.638Z,18.00
2018-03-30T11:34:05.927Z,17.50
2018-03-30T11:36:34.244Z,17.40
2018-03-30T11:39:01.770Z,17.50
2018-03-30T11:41:29.264Z,17.30
2018-03-30T11:43:56.786Z,17.30
2018-03-30T11:46:24.394Z,17.10
2018-03-30T11:48:51.908Z,17.10
2018-03-30T11:51:19.410Z,17.20
2018-03-30T11:53:46.933Z,17.30
2018-03-30T11:56:14.460Z,17.20
2018-03-30T11:58:41.969Z,17.20
2018-03-30T12:01:10.287Z,17.40
2018-03-30T12:03:37.812Z,17.40
2018-03-30T12:06:05.372Z,17.40
2018-03-30T12:08:33.652Z,17.60
2018-03-30T12:11:01.185Z,17.60
2018-03-30T12:13:28.707Z,17.60
2018-03-30T12:15:56.190Z,17.60
2018-03-30T12:18:23.702Z,17.50
2018-03-30T12:20:51.206Z,17.20
2018-03-30T12:23:18.716Z,17.00
2018-03-30T12:25:46.232Z,17.00
2018-03-30T12:28:13.732Z,16.70
2018-03-30T12:30:42.042Z,16.30
2018-03-30T12:33:10.325Z,16.10
2018-03-30T12:35:37.844Z,16.10
2018-03-30T12:38:05.433Z,16.20
2018-03-30T12:40:33.095Z,16.50
2018-03-30T12:43:00.616Z,16.80
2018-03-30T12:45:28.127Z,17.20
2018-03-30T12:47:55.624Z,17.20
2018-03-30T12:50:23.991Z,17.20
2018-03-30T12:52:51.489Z,17.20
2018-03-30T12:55:19.010Z,17.10
2018-03-30T12:57:46.573Z,17.00
2018-03-30T13:00:14.070Z,17.00
2018-03-30T13:02:41.601Z,17.20
2018-03-30T13:05:09.137Z,17.50
2018-03-30T13:07:36.643Z,17.90
2018-03-30T13:10:04.923Z,17.70
2018-03-30T13:12:32.429Z,17.70
2018-03-30T13:14:59.960Z,17.50
2018-03-30T13:17:27.484Z,17.40
2018-03-30T13:19:55.006Z,17.50
2018-03-30T13:22:22.502Z,17.40
2018-03-30T13:24:49.989Z,17.50
2018-03-30T13:27:17.498Z,17.60
2018-03-30T13:29:45.003Z,17.50
2018-03-30T13:32:12.536Z,17.70
2018-03-30T13:34:40.023Z,17.70
2018-03-30T13:37:07.538Z,17.80
2018-03-30T13:39:35.073Z,17.80
2018-03-30T13:42:03.354Z,17.50
2018-03-30T13:44:30.895Z,17.50
2018-03-30T13:46:58.397Z,17.40
2018-03-30T13:49:26.695Z,17.30
2018-03-30T13:54:53.352Z,17.40
2018-03-30T13:57:21.606Z,17.40
2018-03-30T13:59:53.725Z,17.30
2018-03-30T14:02:27.638Z,16.80
2018-03-30T14:05:01.054Z,16.70
2018-03-30T14:07:35.505Z,16.30
2018-03-30T14:10:03.924Z,16.30
2018-03-30T14:12:34.299Z,16.30
2018-03-30T14:15:01.815Z,16.30
2018-03-30T14:17:31.282Z,16.40
2018-03-30T14:22:58.330Z,15.80
2018-03-30T14:25:36.549Z,15.30
2018-03-30T14:28:08.600Z,15.20
2018-03-30T14:30:37.003Z,14.90
2018-03-30T14:33:10.818Z,14.50
2018-03-30T14:35:43.750Z,14.50
2018-03-30T14:38:16.643Z,14.30
2018-03-30T14:40:44.167Z,13.80
2018-03-30T14:43:12.604Z,13.70
2018-03-30T14:45:41.714Z,13.60
2018-03-30T14:48:25.799Z,13.50
2018-03-30T14:53:52.849Z,13.00
2018-03-30T14:56:37.767Z,12.90
2018-03-30T14:59:08.832Z,12.80
2018-03-30T15:01:46.286Z,12.70
2018-03-30T15:04:18.659Z,12.60
2018-03-30T15:06:48.807Z,12.70
2018-03-30T15:09:17.145Z,12.90
2018-03-30T15:11:58.238Z,12.90
2018-03-30T15:14:27.412Z,12.90
2018-03-30T15:17:06.385Z,12.90
2018-03-30T15:19:41.356Z,12.40
2018-03-30T15:25:09.336Z,12.20
2018-03-30T15:27:39.464Z,12.00
2018-03-30T15:30:13.668Z,11.60
2018-03-30T15:32:58.933Z,11.30
2018-03-30T15:35:27.261Z,11.10
2018-03-30T15:37:54.787Z,11.00
2018-03-30T15:40:24.087Z,11.00
2018-03-30T15:43:01.534Z,11.00
2018-03-30T15:48:26.681Z,10.90
2018-03-30T15:51:13.832Z,10.80
2018-03-30T15:53:40.869Z,10.70
2018-03-30T15:56:09.297Z,10.60
2018-03-30T15:58:37.632Z,10.50
2018-03-30T16:01:05.169Z,10.50
2018-03-30T16:03:32.679Z,10.50
2018-03-30T16:06:00.214Z,10.40
2018-03-30T16:08:27.735Z,10.20
2018-03-30T16:11:02.761Z,10.00
2018-03-30T16:13:30.282Z,10.00
2018-03-30T16:15:57.900Z,9.90
2018-03-30T16:18:25.449Z,9.80
2018-03-30T16:20:52.453Z,9.80
2018-03-30T16:23:19.458Z,9.70
2018-03-30T16:25:46.467Z,9.70
2018-03-30T16:28:13.469Z,9.70
2018-03-30T16:30:41.242Z,9.60
2018-03-30T16:33:08.241Z,9.60
2018-03-30T16:35:35.254Z,9.60
2018-03-30T16:38:03.011Z,9.70
2018-03-30T16:40:30.029Z,9.70
2018-03-30T16:42:57.029Z,9.70
2018-03-30T16:45:24.819Z,9.50
2018-03-30T16:47:51.831Z,9.50
2018-03-30T16:50:18.832Z,9.50
2018-03-30T16:52:45.840Z,9.40
2018-03-30T16:55:13.609Z,9.20
2018-03-30T16:57:40.631Z,9.10
2018-03-30T17:00:07.683Z,9.10
2018-03-30T17:02:35.466Z,8.90
2018-03-30T17:05:02.479Z,8.90
2018-03-30T17:07:29.521Z,8.80
2018-03-30T17:09:56.530Z,8.70
2018-03-30T17:12:23.536Z,8.70
2018-03-30T17:14:50.551Z,8.70
2018-03-30T17:17:17.554Z,8.60
2018-03-30T17:22:14.928Z,8.60
2018-03-30T17:24:41.909Z,8.70
2018-03-30T17:27:08.926Z,8.60
2018-03-30T17:29:35.917Z,8.60
2018-03-30T17:32:02.931Z,8.60
2018-03-30T17:34:29.917Z,8.60
2018-03-30T17:36:56.910Z,8.50
2018-03-30T17:39:23.927Z,8.40
2018-03-30T17:41:50.972Z,8.40
2018-03-30T17:44:17.985Z,8.30
2018-03-30T17:46:44.988Z,8.30
2018-03-30T17:49:12.753Z,8.20
2018-03-30T17:51:39.797Z,8.20
2018-03-30T17:54:06.788Z,8.10
2018-03-30T17:56:33.778Z,8.10
2018-03-30T17:59:00.796Z,8.10
2018-03-30T18:01:27.790Z,8.10
2018-03-30T18:03:54.779Z,8.00
2018-03-30T18:06:22.562Z,7.90
2018-03-30T18:08:49.569Z,7.90
2018-03-30T18:11:16.584Z,7.80
2018-03-30T18:13:43.577Z,7.80
2018-03-30T18:16:10.588Z,7.70
2018-03-30T18:18:37.612Z,7.80
2018-03-30T18:21:04.643Z,7.70
2018-03-30T18:23:31.647Z,7.70
2018-03-30T18:25:58.676Z,7.70
2018-03-30T18:28:25.701Z,7.70
2018-03-30T18:30:52.737Z,7.50
2018-03-30T18:33:20.503Z,7.40
2018-03-30T18:35:47.501Z,7.40
2018-03-30T18:38:14.520Z,7.40
2018-03-30T18:40:41.541Z,7.30
2018-03-30T18:43:08.543Z,7.30
2018-03-30T18:45:35.555Z,7.20
2018-03-30T18:48:02.559Z,7.20
2018-03-30T18:50:29.593Z,7.20
2018-03-30T18:52:57.354Z,7.20
2018-03-30T18:55:24.359Z,7.20
2018-03-30T18:57:51.342Z,7.10
2018-03-30T19:00:18.356Z,7.00
2018-03-30T19:02:45.376Z,6.80
2018-03-30T19:05:13.131Z,6.80
2018-03-30T19:07:40.923Z,6.70
2018-03-30T19:10:07.941Z,6.70
2018-03-30T19:12:34.956Z,6.50
2018-03-30T19:15:01.983Z,6.40
2018-03-30T19:17:28.999Z,6.30
2018-03-30T19:19:56.000Z,6.20
2018-03-30T19:22:23.016Z,6.20
2018-03-30T19:24:50.034Z,6.20
2018-03-30T19:27:17.053Z,6.20
2018-03-30T19:29:44.058Z,6.10
2018-03-30T19:32:11.085Z,6.10
2018-03-30T19:34:38.109Z,6.10
2018-03-30T19:37:05.118Z,6.10
2018-03-30T19:39:32.145Z,6.10
2018-03-30T19:41:59.140Z,6.10
2018-03-30T19:44:26.179Z,6.10
2018-03-30T19:46:53.186Z,6.00
2018-03-30T19:49:20.194Z,6.00
2018-03-30T19:51:47.214Z,5.90
2018-03-30T19:54:14.218Z,5.80
2018-03-30T19:56:41.236Z,5.70
2018-03-30T19:59:09.024Z,5.60
2018-03-30T20:01:36.050Z,5.60
2018-03-30T20:04:03.058Z,5.60
2018-03-30T20:06:30.054Z,5.60
2018-03-30T20:08:57.063Z,5.50
2018-03-30T20:11:24.060Z,5.40
2018-03-30T20:13:51.066Z,5.30
2018-03-30T20:16:18.090Z,5.20
2018-03-30T20:18:45.104Z,5.20
2018-03-30T20:21:12.100Z,5.00
2018-03-30T20:23:39.097Z,5.00
2018-03-30T20:26:06.113Z,5.00
2018-03-30T20:28:33.097Z,5.00
2018-03-30T20:31:00.118Z,5.00
2018-03-30T20:33:27.118Z,4.90
2018-03-30T20:35:54.133Z,4.80
2018-03-30T20:38:21.173Z,4.70
2018-03-30T20:40:48.173Z,4.70
2018-03-30T20:43:15.201Z,4.60
2018-03-30T20:45:42.206Z,4.50
2018-03-30T20:48:09.971Z,4.50
2018-03-30T20:50:36.995Z,4.50
2018-03-30T20:53:04.001Z,4.60
2018-03-30T20:55:31.016Z,4.50
2018-03-30T20:57:58.793Z,4.30
2018-03-30T21:00:26.555Z,4.20
2018-03-30T21:02:53.579Z,4.20
2018-03-30T21:05:20.571Z,4.00
2018-03-30T21:07:48.347Z,3.80
2018-03-30T21:10:15.369Z,3.80
2018-03-30T21:12:42.396Z,3.80
2018-03-30T21:15:09.394Z,3.70
2018-03-30T21:17:36.385Z,3.70
2018-03-30T21:20:03.395Z,3.60
2018-03-30T21:22:31.151Z,3.50
2018-03-30T21:24:58.177Z,3.50
2018-03-30T21:27:25.177Z,3.50
2018-03-30T21:29:52.198Z,3.40
2018-03-30T21:32:19.213Z,3.30
2018-03-30T21:34:46.231Z,3.20
2018-03-30T21:37:13.241Z,3.00
2018-03-30T21:39:40.244Z,2.90
2018-03-30T21:42:07.260Z,2.80
2018-03-30T21:44:34.257Z,2.70
2018-03-30T21:47:01.258Z,2.60
2018-03-30T21:49:28.275Z,2.60
2018-03-30T21:51:55.292Z,2.60
2018-03-30T21:54:22.307Z,2.50
2018-03-30T21:56:49.301Z,2.50
2018-03-30T21:59:16.299Z,2.50
2018-03-30T22:01:43.314Z,2.40
2018-03-30T22:04:10.346Z,2.40
2018-03-30T22:06:37.350Z,2.40
2018-03-30T22:09:04.345Z,2.40
2018-03-30T22:11:32.108Z,2.30
2018-03-30T22:13:59.134Z,2.30
2018-03-30T22:16:26.134Z,2.20
2018-03-30T22:18:53.146Z,2.20
2018-03-30T22:21:20.143Z,2.10
2018-03-30T22:23:47.138Z,2.10
2018-03-30T22:26:14.154Z,2.10
2018-03-30T22:28:41.926Z,1.90
2018-03-30T22:31:08.932Z,1.90
2018-03-30T22:33:35.924Z,1.90
2018-03-30T22:36:02.917Z,2.00
2018-03-30T22:38:29.934Z,2.00
2018-03-30T22:40:56.922Z,1.90
2018-03-30T22:43:23.925Z,1.70
2018-03-30T22:45:50.917Z,1.70
2018-03-30T22:48:17.911Z,1.60
2018-03-30T22:50:45.701Z,1.50
2018-03-30T22:53:12.694Z,1.50
2018-03-30T22:55:39.707Z,1.50
2018-03-30T22:58:06.701Z,1.50
2018-03-30T23:00:33.698Z,1.40
2018-03-30T23:03:00.717Z,1.40
2018-03-30T23:05:27.719Z,1.30
2018-03-30T23:07:54.734Z,1.30
2018-03-30T23:10:21.737Z,1.30
2018-03-30T23:12:48.769Z,1.30
2018-03-30T23:15:15.775Z,1.30
2018-03-30T23:17:42.770Z,1.20
2018-03-30T23:20:09.780Z,1.20
2018-03-30T23:22:36.786Z,1.20
2018-03-30T23:25:03.789Z,1.30
2018-03-30T23:27:31.573Z,1.30
2018-03-30T23:29:58.575Z,1.20
2018-03-30T23:32:25.575Z,1.30
2018-03-30T23:34:53.346Z,1.30
2018-03-30T23:37:21.127Z,1.30
2018-03-30T23:39:48.124Z,1.20
2018-03-30T23:42:15.158Z,1.30
2018-03-30T23:44:42.150Z,1.30
2018-03-30T23:47:09.138Z,1.30
2018-03-30T23:49:36.169Z,1.30
2018-03-30T23:52:03.159Z,1.30
2018-03-30T23:54:30.165Z,1.20
2018-03-30T23:56:57.924Z,1.20
2018-03-30T23:59:24.939Z,1.20
